createdAt,value
2022-09-02T00:01:23.883Z,1.53
2022-09-02T00:03:52.239Z,1.50
2022-09-02T00:06:20.807Z,1.30
2022-09-02T00:08:50.745Z,1.27
2022-09-02T00:11:19.942Z,1.07
2022-09-02T00:13:48.652Z,1.20
2022-09-02T00:16:17.477Z,1.10
2022-09-02T00:18:46.486Z,1.23
2022-09-02T00:21:15.069Z,1.20
2022-09-02T00:23:43.727Z,1.37
2022-09-02T00:26:13.553Z,1.40
2022-09-02T00:28:49.138Z,1.20
2022-09-02T00:31:24.134Z,1.40
2022-09-02T00:33:52.529Z,1.13
2022-09-02T00:36:21.039Z,1.23
2022-09-02T00:38:49.646Z,1.17
2022-09-02T00:41:20.435Z,1.13
2022-09-02T00:43:49.321Z,1.10
2022-09-02T00:46:18.494Z,1.20
2022-09-02T00:48:48.259Z,1.30
2022-09-02T00:51:16.841Z,1.20
2022-09-02T00:53:45.417Z,1.10
2022-09-02T00:56:15.409Z,1.13
2022-09-02T00:58:45.144Z,1.03
2022-09-02T01:01:14.031Z,1.30
2022-09-02T01:03:42.522Z,1.50
2022-09-02T01:06:11.770Z,1.40
2022-09-02T01:08:40.327Z,1.20
2022-09-02T01:11:08.631Z,1.20
2022-09-02T01:13:39.050Z,1.30
2022-09-02T01:16:11.698Z,1.60
2022-09-02T01:18:40.182Z,1.10
2022-09-02T01:21:08.479Z,1.10
2022-09-02T01:23:39.305Z,1.10
2022-09-02T01:26:08.404Z,0.93
2022-09-02T01:28:37.256Z,1.30
2022-09-02T01:31:05.860Z,1.40
2022-09-02T01:33:34.362Z,1.30
2022-09-02T01:36:04.688Z,1.20
2022-09-02T01:38:33.334Z,1.40
2022-09-02T01:41:03.074Z,1.20
2022-09-02T01:43:31.491Z,1.10
2022-09-02T01:46:00.108Z,1.40
2022-09-02T01:48:28.592Z,1.10
2022-09-02T01:50:57.712Z,1.17
2022-09-02T01:53:27.369Z,1.13
2022-09-02T01:55:55.697Z,1.27
2022-09-02T01:58:25.523Z,0.93
2022-09-02T02:00:53.912Z,1.20
2022-09-02T02:03:22.629Z,1.20
2022-09-02T02:05:51.071Z,1.63
2022-09-02T02:08:19.450Z,1.20
2022-09-02T02:10:47.771Z,1.23
2022-09-02T02:13:16.230Z,1.10
2022-09-02T02:15:46.088Z,1.30
2022-09-02T02:18:14.879Z,1.30
2022-09-02T02:20:44.831Z,1.27
2022-09-02T02:23:13.574Z,1.27
2022-09-02T02:25:41.954Z,1.30
2022-09-02T02:28:10.572Z,1.20
2022-09-02T02:30:38.987Z,1.10
2022-09-02T02:33:08.839Z,1.20
2022-09-02T02:35:37.170Z,1.00
2022-09-02T02:38:05.532Z,1.00
2022-09-02T02:40:34.084Z,1.03
2022-09-02T02:43:02.627Z,1.50
2022-09-02T02:45:31.045Z,1.50
2022-09-02T02:47:59.971Z,1.30
2022-09-02T02:50:29.827Z,1.20
2022-09-02T02:52:58.267Z,1.40
2022-09-02T02:55:27.349Z,1.30
2022-09-02T02:57:55.731Z,1.10
2022-09-02T03:00:24.719Z,1.30
2022-09-02T03:02:54.058Z,1.10
2022-09-02T03:05:22.473Z,1.43
2022-09-02T03:07:52.187Z,1.40
2022-09-02T03:10:20.649Z,1.50
2022-09-02T03:12:49.026Z,1.40
2022-09-02T03:15:18.374Z,1.57
2022-09-02T03:17:46.694Z,1.10
2022-09-02T03:20:15.859Z,1.20
2022-09-02T03:22:45.000Z,1.30
2022-09-02T03:25:14.713Z,1.30
2022-09-02T03:27:44.846Z,1.50
2022-09-02T03:30:14.061Z,1.30
2022-09-02T03:32:42.484Z,1.13
2022-09-02T03:35:13.734Z,1.40
2022-09-02T03:37:42.076Z,1.73
2022-09-02T03:40:11.194Z,1.23
2022-09-02T03:42:41.018Z,1.50
2022-09-02T03:45:11.852Z,1.03
2022-09-02T03:47:45.203Z,1.50
2022-09-02T03:50:13.645Z,1.53
2022-09-02T03:52:42.008Z,1.30
2022-09-02T03:55:10.814Z,1.63
2022-09-02T03:57:39.196Z,1.53
2022-09-02T04:00:09.739Z,1.30
2022-09-02T04:02:38.135Z,1.30
2022-09-02T04:05:07.013Z,1.40
2022-09-02T04:07:44.500Z,1.60
2022-09-02T04:10:15.580Z,1.33
2022-09-02T04:12:43.892Z,1.40
2022-09-02T04:15:14.235Z,1.40
2022-09-02T04:17:42.799Z,1.37
2022-09-02T04:20:11.896Z,1.50
2022-09-02T04:22:40.249Z,1.40
2022-09-02T04:25:08.918Z,1.40
2022-09-02T04:27:37.220Z,1.40
2022-09-02T04:30:06.017Z,1.30
2022-09-02T04:32:40.267Z,1.60
2022-09-02T04:35:09.174Z,1.50
2022-09-02T04:37:37.559Z,1.20
2022-09-02T04:40:06.424Z,1.40
2022-09-02T04:42:35.867Z,1.47
2022-09-02T04:45:04.375Z,1.40
2022-09-02T04:47:32.836Z,1.43
2022-09-02T04:50:02.866Z,1.53
2022-09-02T04:52:31.554Z,1.83
2022-09-02T04:54:59.902Z,1.30
2022-09-02T04:57:28.246Z,1.10
2022-09-02T04:59:57.087Z,1.20
2022-09-02T05:02:25.604Z,1.30
2022-09-02T05:04:54.192Z,1.20
2022-09-02T05:07:24.016Z,1.80
2022-09-02T05:09:52.484Z,1.63
2022-09-02T05:12:21.030Z,1.57
2022-09-02T05:14:49.619Z,1.73
2022-09-02T05:17:18.095Z,1.50
2022-09-02T05:19:46.627Z,1.60
2022-09-02T05:22:15.065Z,1.80
2022-09-02T05:24:45.011Z,1.93
2022-09-02T05:27:13.379Z,1.70
2022-09-02T05:29:45.190Z,1.73
2022-09-02T05:32:13.976Z,2.67
2022-09-02T05:34:42.987Z,1.90
2022-09-02T05:37:11.825Z,1.60
2022-09-02T05:39:40.383Z,1.77
2022-09-02T05:42:10.291Z,1.70
2022-09-02T05:44:39.079Z,1.77
2022-09-02T05:47:07.797Z,1.70
2022-09-02T05:49:36.204Z,1.63
2022-09-02T05:52:05.342Z,1.70
2022-09-02T05:54:34.148Z,1.90
2022-09-02T05:57:03.101Z,1.83
2022-09-02T05:59:36.832Z,1.90
2022-09-02T06:02:08.048Z,1.60
2022-09-02T06:04:38.720Z,1.80
2022-09-02T06:07:07.315Z,2.17
2022-09-02T06:09:36.026Z,2.30
2022-09-02T06:12:05.085Z,1.80
2022-09-02T06:14:34.947Z,3.63
2022-09-02T06:17:03.475Z,2.90
2022-09-02T06:19:33.689Z,2.10
2022-09-02T06:22:02.642Z,1.60
2022-09-02T06:24:31.156Z,1.70
2022-09-02T06:27:00.994Z,2.40
2022-09-02T06:29:29.338Z,1.80
2022-09-02T06:31:59.718Z,1.90
2022-09-02T06:34:28.278Z,2.40
2022-09-02T06:36:57.690Z,2.10
2022-09-02T06:39:26.946Z,2.00
2022-09-02T06:41:55.872Z,2.10
2022-09-02T06:44:24.279Z,2.10
2022-09-02T06:46:55.074Z,2.27
2022-09-02T06:49:24.804Z,1.80
2022-09-02T06:51:54.827Z,2.20
2022-09-02T06:54:23.315Z,1.93
2022-09-02T06:56:52.199Z,2.30
2022-09-02T06:59:20.575Z,2.33
2022-09-02T07:01:49.248Z,2.10
2022-09-02T07:04:35.405Z,2.37
2022-09-02T07:07:05.603Z,2.07
2022-09-02T07:09:33.938Z,2.00
2022-09-02T07:12:05.046Z,2.10
2022-09-02T07:14:33.874Z,2.60
2022-09-02T07:17:02.399Z,2.30
2022-09-02T07:19:30.852Z,2.70
2022-09-02T07:21:59.204Z,2.20
2022-09-02T07:24:28.955Z,2.43
2022-09-02T07:26:57.552Z,2.50
2022-09-02T07:29:25.928Z,2.27
2022-09-02T07:31:54.287Z,2.30
2022-09-02T07:34:22.840Z,2.80
2022-09-02T07:36:51.408Z,2.53
2022-09-02T07:39:19.998Z,2.50
2022-09-02T07:41:50.436Z,2.93
2022-09-02T07:44:18.846Z,2.17
2022-09-02T07:46:47.233Z,2.90
2022-09-02T07:49:18.917Z,2.77
2022-09-02T07:51:50.638Z,2.60
2022-09-02T07:54:19.356Z,2.73
2022-09-02T07:56:49.842Z,2.87
2022-09-02T07:59:19.628Z,2.77
2022-09-02T08:01:48.896Z,3.00
2022-09-02T08:04:18.711Z,3.20
2022-09-02T08:06:47.110Z,2.97
2022-09-02T08:09:15.455Z,2.70
2022-09-02T08:11:45.173Z,2.87
2022-09-02T08:14:15.153Z,3.00
2022-09-02T08:16:46.630Z,2.87
2022-09-02T08:19:15.214Z,3.00
2022-09-02T08:21:43.708Z,3.13
2022-09-02T08:24:12.097Z,3.00
2022-09-02T08:26:40.526Z,3.00
2022-09-02T08:29:09.232Z,3.20
2022-09-02T08:31:38.658Z,3.50
2022-09-02T08:34:08.555Z,3.40
2022-09-02T08:36:36.987Z,2.97
2022-09-02T08:39:05.724Z,3.23
2022-09-02T08:41:35.841Z,3.43
2022-09-02T08:44:05.105Z,3.10
2022-09-02T08:46:33.921Z,3.37
2022-09-02T08:49:04.212Z,3.20
2022-09-02T08:51:37.741Z,3.97
2022-09-02T08:54:06.827Z,3.80
2022-09-02T08:56:35.155Z,3.60
2022-09-02T08:59:04.016Z,3.40
2022-09-02T09:01:35.473Z,3.23
2022-09-02T09:04:08.641Z,3.87
2022-09-02T09:06:40.592Z,4.33
2022-09-02T09:09:10.569Z,3.40
2022-09-02T09:11:40.515Z,3.50
2022-09-02T09:14:11.653Z,4.07
2022-09-02T09:16:41.479Z,3.40
2022-09-02T09:19:13.942Z,3.40
2022-09-02T09:21:44.131Z,3.73
2022-09-02T09:24:20.023Z,3.77
2022-09-02T09:26:48.456Z,3.40
2022-09-02T09:29:16.831Z,4.00
2022-09-02T09:31:45.770Z,3.77
2022-09-02T09:34:14.681Z,3.77
2022-09-02T09:37:00.787Z,3.83
2022-09-02T09:39:31.642Z,3.60
2022-09-02T09:42:01.694Z,3.30
2022-09-02T09:44:37.416Z,3.83
2022-09-02T09:47:07.213Z,3.83
2022-09-02T09:49:35.520Z,3.87
2022-09-02T09:52:04.013Z,3.60
2022-09-02T09:54:33.707Z,3.70
2022-09-02T09:57:15.004Z,4.23
2022-09-02T09:59:45.757Z,3.70
2022-09-02T10:02:18.850Z,3.60
2022-09-02T10:04:47.238Z,4.00
2022-09-02T10:07:15.696Z,3.93
2022-09-02T10:09:45.461Z,3.80
2022-09-02T10:12:14.064Z,4.00
2022-09-02T10:14:43.456Z,3.60
2022-09-02T10:17:16.581Z,3.90
2022-09-02T10:19:45.798Z,3.87
2022-09-02T10:22:21.195Z,4.10
2022-09-02T10:24:55.648Z,3.97
2022-09-02T10:27:25.804Z,3.90
2022-09-02T10:29:55.029Z,3.90
2022-09-02T10:32:38.374Z,3.90
2022-09-02T10:35:11.431Z,4.47
2022-09-02T10:37:41.456Z,3.93
2022-09-02T10:40:12.315Z,4.63
2022-09-02T10:42:49.199Z,4.37
2022-09-02T10:45:18.132Z,3.87
2022-09-02T10:47:47.630Z,4.30
2022-09-02T10:50:23.980Z,4.30
2022-09-02T10:52:59.724Z,3.90
2022-09-02T10:55:32.586Z,3.70
2022-09-02T10:58:04.446Z,3.80
2022-09-02T11:00:33.082Z,3.90
2022-09-02T11:03:03.813Z,4.27
2022-09-02T11:05:36.112Z,3.63
2022-09-02T11:08:05.613Z,3.50
2022-09-02T11:10:36.763Z,4.07
2022-09-02T11:13:08.910Z,3.97
2022-09-02T11:15:40.655Z,3.50
2022-09-02T11:20:43.812Z,3.23
2022-09-02T11:23:15.408Z,3.80
2022-09-02T11:25:46.660Z,3.27
2022-09-02T11:28:22.364Z,3.03
2022-09-02T11:33:26.597Z,3.23
2022-09-02T11:35:55.385Z,3.10
2022-09-02T11:38:34.474Z,3.30
2022-09-02T11:41:37.628Z,2.70
2022-09-02T11:44:14.916Z,3.00
2022-09-02T11:46:46.621Z,2.67
2022-09-02T11:49:30.342Z,2.97
2022-09-02T11:52:02.001Z,2.88
2022-09-02T11:54:32.018Z,3.45
2022-09-02T11:57:02.808Z,3.25
2022-09-02T11:59:50.039Z,2.92
2022-09-02T12:02:24.058Z,3.40
2022-09-02T12:05:00.428Z,2.90
2022-09-02T12:07:34.043Z,2.80
2022-09-02T12:10:03.414Z,2.50
2022-09-02T12:12:51.951Z,2.50
2022-09-02T12:15:23.782Z,2.70
2022-09-02T12:18:09.802Z,2.50
2022-09-02T12:21:08.620Z,2.53
2022-09-02T12:24:19.039Z,2.63
2022-09-02T12:27:08.144Z,2.85
2022-09-02T12:29:39.708Z,2.58
2022-09-02T12:32:09.565Z,2.35
2022-09-02T12:34:56.767Z,2.40
2022-09-02T12:37:54.976Z,2.47
2022-09-02T12:40:33.948Z,2.78
2022-09-02T12:43:04.012Z,2.65
2022-09-02T12:45:33.091Z,2.40
2022-09-02T12:48:03.455Z,2.67
2022-09-02T12:50:36.136Z,2.40
2022-09-02T12:53:14.525Z,2.20
2022-09-02T12:55:45.260Z,2.67
2022-09-02T12:58:14.743Z,2.20
2022-09-02T13:00:47.791Z,2.30
2022-09-02T13:03:22.207Z,2.00
2022-09-02T13:05:54.799Z,2.42
2022-09-02T13:08:36.681Z,2.50
2022-09-02T13:11:38.325Z,2.58
2022-09-02T13:14:24.575Z,2.40
2022-09-02T13:16:55.457Z,2.28
2022-09-02T13:19:36.961Z,2.00
2022-09-02T13:22:08.086Z,1.95
2022-09-02T13:24:43.174Z,2.28
2022-09-02T13:27:32.644Z,2.20
2022-09-02T13:30:05.400Z,2.15
2022-09-02T13:32:34.168Z,1.92
2022-09-02T13:35:05.154Z,2.47
2022-09-02T13:37:36.572Z,2.10
2022-09-02T13:40:07.397Z,2.03
2022-09-02T13:42:35.824Z,2.55
2022-09-02T13:45:12.281Z,2.38
2022-09-02T13:47:43.227Z,2.47
2022-09-02T13:50:13.005Z,2.28
2022-09-02T13:55:31.372Z,2.67
2022-09-02T13:58:00.522Z,2.67
2022-09-02T14:00:32.749Z,2.55
2022-09-02T14:03:02.759Z,3.00
2022-09-02T14:05:33.113Z,2.70
2022-09-02T14:08:03.608Z,3.05
2022-09-02T14:10:32.641Z,2.50
2022-09-02T14:13:01.207Z,2.55
2022-09-02T14:15:30.073Z,2.63
2022-09-02T14:18:25.608Z,2.90
2022-09-02T14:20:59.393Z,2.53
2022-09-02T14:23:28.080Z,2.75
2022-09-02T14:25:58.049Z,4.88
2022-09-02T14:28:26.796Z,7.65
2022-09-02T14:30:59.361Z,13.70
2022-09-02T14:33:29.280Z,8.70
2022-09-02T14:36:02.813Z,7.18
2022-09-02T14:38:31.722Z,14.73
2022-09-02T14:41:03.790Z,5.05
2022-09-02T14:43:37.028Z,4.35
2022-09-02T14:46:06.536Z,6.50
2022-09-02T14:48:37.979Z,4.50
2022-09-02T14:51:08.310Z,3.95
2022-09-02T14:53:38.058Z,4.20
2022-09-02T14:56:07.131Z,7.47
2022-09-02T14:58:35.428Z,3.10
2022-09-02T15:01:04.765Z,4.10
2022-09-02T15:03:33.191Z,3.40
2022-09-02T15:06:01.750Z,5.03
2022-09-02T15:08:31.669Z,2.72
2022-09-02T15:11:01.056Z,2.95
2022-09-02T15:13:30.513Z,2.85
2022-09-02T15:15:59.364Z,2.45
2022-09-02T15:18:27.886Z,2.33
2022-09-02T15:20:56.339Z,2.40
2022-09-02T15:23:24.855Z,2.40
2022-09-02T15:25:54.726Z,2.30
2022-09-02T15:28:23.094Z,3.60
2022-09-02T15:30:51.543Z,2.57
2022-09-02T15:33:19.962Z,2.57
2022-09-02T15:35:48.442Z,2.20
2022-09-02T15:38:17.452Z,2.10
2022-09-02T15:40:46.093Z,2.13
2022-09-02T15:43:17.133Z,2.40
2022-09-02T15:45:46.620Z,2.57
2022-09-02T15:48:15.003Z,2.10
2022-09-02T15:50:45.636Z,2.30
2022-09-02T15:53:16.021Z,1.83
2022-09-02T15:55:44.571Z,2.27
2022-09-02T15:58:12.879Z,2.40
2022-09-02T16:00:43.963Z,2.23
2022-09-02T16:03:12.574Z,2.00
2022-09-02T16:05:43.234Z,2.10
2022-09-02T16:08:12.600Z,2.20
2022-09-02T16:10:41.270Z,2.00
2022-09-02T16:13:09.708Z,2.10
2022-09-02T16:15:38.079Z,2.43
2022-09-02T16:18:08.177Z,2.60
2022-09-02T16:20:36.513Z,2.50
2022-09-02T16:23:04.833Z,2.70
2022-09-02T16:25:33.463Z,2.60
2022-09-02T16:28:02.361Z,2.30
2022-09-02T16:30:31.044Z,2.23
2022-09-02T16:33:00.028Z,2.33
2022-09-02T16:35:29.740Z,1.90
2022-09-02T16:37:58.272Z,2.20
2022-09-02T16:40:26.602Z,2.17
2022-09-02T16:42:54.957Z,2.17
2022-09-02T16:45:23.410Z,2.60
2022-09-02T16:47:51.751Z,2.80
2022-09-02T16:50:20.141Z,3.63
2022-09-02T16:52:50.506Z,3.27
2022-09-02T16:55:19.000Z,3.10
2022-09-02T16:57:47.381Z,3.23
2022-09-02T17:00:16.616Z,3.10
2022-09-02T17:02:45.079Z,2.50
2022-09-02T17:05:17.378Z,2.60
2022-09-02T17:07:46.849Z,3.07
2022-09-02T17:10:16.917Z,3.07
2022-09-02T17:12:45.326Z,2.83
2022-09-02T17:15:13.677Z,2.73
2022-09-02T17:17:42.391Z,2.63
2022-09-02T17:20:13.122Z,2.83
2022-09-02T17:22:41.920Z,2.37
2022-09-02T17:25:10.615Z,1.87
2022-09-02T17:27:41.110Z,1.97
2022-09-02T17:30:10.873Z,2.40
2022-09-02T17:32:39.213Z,2.27
2022-09-02T17:35:09.253Z,3.00
2022-09-02T17:37:38.292Z,2.97
2022-09-02T17:40:07.362Z,2.53
2022-09-02T17:42:35.027Z,2.30
2022-09-02T17:45:05.224Z,2.10
2022-09-02T17:47:34.068Z,2.60
2022-09-02T17:50:02.667Z,4.50
2022-09-02T17:52:31.110Z,4.00
2022-09-02T17:54:59.801Z,3.83
2022-09-02T17:57:32.231Z,2.60
2022-09-02T18:00:07.569Z,3.80
2022-09-02T18:03:13.377Z,2.97
2022-09-02T18:05:47.252Z,2.70
2022-09-02T18:08:17.028Z,2.67
2022-09-02T18:10:57.534Z,2.50
2022-09-02T18:13:30.545Z,2.53
2022-09-02T18:16:00.918Z,2.67
2022-09-02T18:18:29.246Z,2.00
2022-09-02T18:20:57.900Z,2.80
2022-09-02T18:23:29.239Z,3.17
2022-09-02T18:25:59.386Z,2.37
2022-09-02T18:28:31.147Z,5.47
2022-09-02T18:31:03.214Z,4.43
2022-09-02T18:33:38.337Z,3.33
2022-09-02T18:36:10.354Z,3.13
2022-09-02T18:38:41.191Z,2.60
2022-09-02T18:41:13.904Z,2.40
2022-09-02T18:43:43.547Z,2.50
2022-09-02T18:46:14.321Z,2.80
2022-09-02T18:48:42.925Z,2.37
2022-09-02T18:51:15.332Z,4.77
2022-09-02T18:53:45.417Z,3.20
2022-09-02T18:56:14.022Z,2.80
2022-09-02T18:58:43.943Z,2.47
2022-09-02T19:01:16.316Z,2.43
2022-09-02T19:03:44.770Z,2.13
2022-09-02T19:06:14.367Z,2.30
2022-09-02T19:08:41.804Z,2.80
2022-09-02T19:11:13.046Z,2.40
2022-09-02T19:13:46.437Z,2.53
2022-09-02T19:16:17.298Z,2.83
2022-09-02T19:18:45.748Z,2.80
2022-09-02T19:21:14.578Z,2.87
2022-09-02T19:23:43.601Z,2.60
2022-09-02T19:26:11.990Z,2.40
2022-09-02T19:28:40.462Z,2.60
2022-09-02T19:31:15.151Z,2.97
2022-09-02T19:33:46.976Z,2.60
2022-09-02T19:36:15.773Z,2.60
2022-09-02T19:38:44.197Z,2.40
2022-09-02T19:41:15.840Z,2.37
2022-09-02T19:43:44.173Z,2.63
2022-09-02T19:46:34.853Z,2.77
2022-09-02T19:49:02.378Z,2.60
2022-09-02T19:51:30.752Z,2.53
2022-09-02T19:54:00.176Z,2.70
2022-09-02T19:56:28.635Z,2.33
2022-09-02T19:58:56.965Z,2.50
2022-09-02T20:01:25.458Z,2.53
2022-09-02T20:03:53.905Z,2.60
2022-09-02T20:06:24.682Z,2.70
2022-09-02T20:08:53.241Z,2.60
2022-09-02T20:11:21.822Z,2.63
2022-09-02T20:13:50.365Z,2.80
2022-09-02T20:16:20.296Z,2.73
2022-09-02T20:18:48.886Z,2.97
2022-09-02T20:21:20.020Z,3.30
2022-09-02T20:23:49.732Z,3.40
2022-09-02T20:26:20.631Z,3.43
2022-09-02T20:28:56.351Z,2.87
2022-09-02T20:31:35.059Z,2.97
2022-09-02T20:34:06.739Z,3.07
2022-09-02T20:36:36.310Z,2.80
2022-09-02T20:39:19.556Z,2.90
2022-09-02T20:41:51.946Z,3.13
2022-09-02T20:44:23.566Z,3.00
2022-09-02T20:46:57.072Z,3.27
2022-09-02T20:49:29.603Z,2.60
2022-09-02T20:51:59.360Z,2.80
2022-09-02T20:54:31.863Z,3.13
2022-09-02T20:57:05.065Z,2.67
2022-09-02T20:59:34.932Z,2.60
2022-09-02T21:02:03.774Z,2.70
2022-09-02T21:04:33.543Z,2.47
2022-09-02T21:07:02.907Z,2.70
2022-09-02T21:09:35.055Z,2.53
2022-09-02T21:12:10.397Z,2.60
2022-09-02T21:14:42.115Z,2.50
2022-09-02T21:17:12.169Z,3.23
2022-09-02T21:19:43.981Z,3.77
2022-09-02T21:22:16.096Z,3.40
2022-09-02T21:24:45.705Z,3.47
2022-09-02T21:27:16.559Z,3.97
2022-09-02T21:29:46.132Z,3.10
2022-09-02T21:32:17.581Z,2.43
2022-09-02T21:34:47.966Z,2.17
2022-09-02T21:37:17.976Z,2.30
2022-09-02T21:39:46.906Z,2.53
2022-09-02T21:42:20.366Z,3.13
2022-09-02T21:44:52.330Z,2.27
2022-09-02T21:47:21.944Z,2.53
2022-09-02T21:49:56.841Z,3.00
2022-09-02T21:52:27.201Z,2.73
2022-09-02T21:54:59.037Z,3.23
2022-09-02T21:57:33.507Z,4.00
2022-09-02T22:00:02.341Z,3.53
2022-09-02T22:02:33.737Z,4.50
2022-09-02T22:05:03.238Z,2.80
2022-09-02T22:07:34.396Z,2.30
2022-09-02T22:10:07.026Z,2.10
2022-09-02T22:12:39.672Z,2.00
2022-09-02T22:15:12.054Z,2.40
2022-09-02T22:17:45.722Z,2.00
2022-09-02T22:20:14.521Z,2.33
2022-09-02T22:22:45.134Z,2.30
2022-09-02T22:25:15.904Z,2.33
2022-09-02T22:27:47.211Z,2.10
2022-09-02T22:30:17.490Z,2.20
2022-09-02T22:32:46.695Z,2.50
2022-09-02T22:35:16.908Z,2.10
2022-09-02T22:37:49.757Z,2.30
2022-09-02T22:40:18.587Z,2.20
2022-09-02T22:42:49.320Z,2.10
2022-09-02T22:45:39.080Z,2.07
2022-09-02T22:48:30.214Z,2.27
2022-09-02T22:51:19.266Z,2.20
2022-09-02T22:53:50.499Z,2.00
2022-09-02T22:56:19.016Z,2.30
2022-09-02T22:58:55.318Z,2.30
2022-09-02T23:01:26.548Z,2.50
2022-09-02T23:03:59.317Z,2.07
2022-09-02T23:06:28.123Z,2.20
2022-09-02T23:08:56.538Z,2.37
2022-09-02T23:11:28.453Z,2.00
2022-09-02T23:14:03.423Z,2.00
2022-09-02T23:16:35.151Z,2.00
2022-09-02T23:19:07.085Z,2.23
2022-09-02T23:21:37.205Z,2.20
2022-09-02T23:24:09.374Z,2.00
2022-09-02T23:26:43.048Z,2.10
2022-09-02T23:29:16.620Z,2.63
2022-09-02T23:31:50.640Z,1.93
2022-09-02T23:34:24.796Z,2.60
2022-09-02T23:36:55.053Z,2.20
2022-09-02T23:39:27.843Z,2.30
2022-09-02T23:41:57.225Z,2.20
2022-09-02T23:44:28.403Z,2.10
2022-09-02T23:46:59.856Z,2.10
2022-09-02T23:49:30.628Z,2.30
2022-09-02T23:52:00.060Z,2.30
2022-09-02T23:54:39.884Z,2.33
2022-09-02T23:57:14.137Z,2.13
2022-09-02T23:59:57.232Z,2.10
